createdAt,value
2022-11-09T00:01:47.991Z,20.80
2022-11-09T00:04:28.650Z,23.90
2022-11-09T00:07:02.074Z,18.90
2022-11-09T00:09:44.312Z,17.10
2022-11-09T00:12:18.085Z,19.50
2022-11-09T00:17:22.900Z,17.80
2022-11-09T00:19:56.720Z,20.30
2022-11-09T00:22:29.841Z,21.30
2022-11-09T00:25:03.183Z,11.50
2022-11-09T00:27:41.092Z,15.70
2022-11-09T00:30:16.213Z,17.60
2022-11-09T00:32:52.660Z,21.30
2022-11-09T00:35:26.321Z,19.10
2022-11-09T00:38:00.313Z,20.50
2022-11-09T00:40:34.488Z,20.20
2022-11-09T00:43:07.929Z,20.60
2022-11-09T00:45:42.051Z,20.80
2022-11-09T00:48:20.350Z,18.20
2022-11-09T00:50:58.181Z,21.90
2022-11-09T00:53:33.954Z,20.40
2022-11-09T00:56:10.042Z,18.90
2022-11-09T00:58:45.735Z,19.50
2022-11-09T01:01:20.416Z,18.90
2022-11-09T01:03:54.786Z,22.00
2022-11-09T01:06:29.797Z,18.30
2022-11-09T01:09:03.001Z,22.70
2022-11-09T01:11:38.322Z,19.90
2022-11-09T01:14:25.956Z,20.70
2022-11-09T01:17:03.159Z,22.80
2022-11-09T01:19:40.003Z,22.50
2022-11-09T01:22:14.010Z,21.00
2022-11-09T01:24:48.062Z,23.20
2022-11-09T01:27:22.929Z,23.00
2022-11-09T01:29:57.463Z,27.60
2022-11-09T01:32:33.131Z,23.70
2022-11-09T01:35:06.553Z,24.70
2022-11-09T01:37:39.821Z,25.40
2022-11-09T01:40:17.165Z,26.20
2022-11-09T01:42:50.818Z,28.10
2022-11-09T01:45:33.571Z,29.90
2022-11-09T01:48:14.451Z,24.00
2022-11-09T01:51:00.489Z,26.00
2022-11-09T01:53:40.683Z,33.30
2022-11-09T01:56:21.500Z,27.10
2022-11-09T01:58:59.627Z,28.60
2022-11-09T02:01:36.309Z,27.70
2022-11-09T02:04:15.724Z,28.70
2022-11-09T02:06:51.301Z,27.20
2022-11-09T02:09:40.481Z,29.90
2022-11-09T02:12:15.251Z,32.30
2022-11-09T02:14:52.014Z,31.50
2022-11-09T02:17:29.136Z,28.30
2022-11-09T02:20:04.420Z,30.90
2022-11-09T02:22:40.870Z,32.50
2022-11-09T02:25:16.337Z,28.00
2022-11-09T02:27:52.557Z,33.00
2022-11-09T02:30:28.546Z,28.00
2022-11-09T02:33:04.326Z,31.60
2022-11-09T02:35:38.866Z,31.10
2022-11-09T02:38:16.557Z,8.40
2022-11-09T02:40:53.808Z,34.00
2022-11-09T02:43:30.886Z,28.50
2022-11-09T02:46:06.753Z,30.10
2022-11-09T02:48:41.543Z,33.20
2022-11-09T02:51:16.340Z,29.10
2022-11-09T02:53:53.991Z,27.90
2022-11-09T02:56:31.062Z,29.90
2022-11-09T02:59:09.115Z,28.60
2022-11-09T03:01:49.439Z,30.80
2022-11-09T03:04:23.675Z,28.20
2022-11-09T03:06:59.784Z,30.80
2022-11-09T03:09:36.197Z,33.90
2022-11-09T03:12:25.157Z,37.50
2022-11-09T03:15:01.688Z,34.40
2022-11-09T03:17:39.056Z,34.40
2022-11-09T03:20:16.400Z,30.90
2022-11-09T03:22:59.425Z,34.40
2022-11-09T03:25:35.090Z,30.20
2022-11-09T03:28:11.013Z,28.80
2022-11-09T03:30:47.904Z,30.90
2022-11-09T03:33:24.106Z,32.00
2022-11-09T03:36:04.078Z,20.50
2022-11-09T03:38:39.865Z,28.60
2022-11-09T03:41:16.376Z,32.90
2022-11-09T03:43:54.037Z,31.90
2022-11-09T03:46:30.628Z,28.40
2022-11-09T03:49:05.500Z,32.00
2022-11-09T03:51:40.522Z,26.50
2022-11-09T03:54:21.333Z,33.20
2022-11-09T03:56:57.053Z,29.60
2022-11-09T03:59:35.279Z,32.00
2022-11-09T04:02:11.382Z,31.10
2022-11-09T04:04:45.859Z,31.00
2022-11-09T04:07:20.839Z,29.10
2022-11-09T04:09:56.174Z,34.90
2022-11-09T04:12:34.357Z,34.30
2022-11-09T04:15:10.876Z,28.70
2022-11-09T04:17:56.298Z,90.00
2022-11-09T04:20:33.284Z,30.20
2022-11-09T04:23:12.508Z,30.10
2022-11-09T04:25:49.452Z,54.40
2022-11-09T04:28:28.940Z,29.40
2022-11-09T04:31:06.372Z,45.30
2022-11-09T04:33:42.097Z,27.90
2022-11-09T04:36:17.876Z,28.40
2022-11-09T04:38:52.923Z,27.90
2022-11-09T04:41:29.433Z,31.00
2022-11-09T04:44:04.755Z,28.10
2022-11-09T04:46:39.317Z,29.60
2022-11-09T04:49:15.213Z,30.30
2022-11-09T04:51:50.367Z,25.10
2022-11-09T04:54:25.120Z,26.20
2022-11-09T04:56:59.782Z,27.40
2022-11-09T04:59:38.196Z,27.30
2022-11-09T05:02:18.356Z,25.20
2022-11-09T05:04:59.317Z,27.80
2022-11-09T05:07:33.559Z,28.10
2022-11-09T05:10:22.602Z,26.70
2022-11-09T05:13:02.095Z,26.20
2022-11-09T05:15:38.952Z,27.30
2022-11-09T05:18:14.243Z,25.00
2022-11-09T05:20:48.838Z,22.50
2022-11-09T05:23:41.108Z,25.30
2022-11-09T05:26:16.864Z,21.30
2022-11-09T05:28:53.197Z,24.60
2022-11-09T05:31:28.685Z,24.30
2022-11-09T05:34:09.377Z,24.40
2022-11-09T05:36:49.336Z,22.70
2022-11-09T05:39:23.303Z,24.80
2022-11-09T05:42:01.441Z,22.60
2022-11-09T05:44:35.541Z,22.90
2022-11-09T05:47:10.846Z,25.00
2022-11-09T05:49:47.471Z,21.80
2022-11-09T05:52:23.006Z,23.60
2022-11-09T05:54:58.330Z,26.00
2022-11-09T05:57:34.157Z,25.30
2022-11-09T06:00:11.872Z,26.00
2022-11-09T06:02:51.536Z,25.30
2022-11-09T06:05:27.730Z,27.40
2022-11-09T06:08:06.737Z,23.20
2022-11-09T06:10:41.716Z,19.40
2022-11-09T06:13:19.701Z,20.60
2022-11-09T06:15:59.937Z,19.00
2022-11-09T06:18:38.159Z,23.30
2022-11-09T06:21:14.687Z,22.10
2022-11-09T06:23:49.272Z,23.70
2022-11-09T06:26:23.516Z,25.00
2022-11-09T06:28:59.412Z,24.10
2022-11-09T06:31:33.829Z,22.90
2022-11-09T06:34:10.200Z,22.40
2022-11-09T06:36:47.144Z,27.60
2022-11-09T06:39:22.687Z,26.40
2022-11-09T06:42:00.674Z,25.00
2022-11-09T06:44:36.238Z,25.10
2022-11-09T06:47:10.698Z,21.70
2022-11-09T06:49:45.017Z,23.80
2022-11-09T06:52:21.603Z,23.70
2022-11-09T06:54:56.672Z,20.40
2022-11-09T06:57:35.878Z,20.90
2022-11-09T07:00:20.287Z,22.60
2022-11-09T07:02:56.657Z,21.00
2022-11-09T07:05:32.881Z,22.90
2022-11-09T07:08:07.734Z,22.30
2022-11-09T07:10:50.108Z,18.40
2022-11-09T07:13:24.982Z,20.40
2022-11-09T07:16:00.075Z,19.80
2022-11-09T07:18:39.311Z,19.40
2022-11-09T07:21:14.713Z,19.80
2022-11-09T07:23:52.313Z,17.90
2022-11-09T07:26:27.338Z,18.20
2022-11-09T07:29:01.304Z,18.40
2022-11-09T07:31:36.072Z,20.50
2022-11-09T07:34:10.928Z,18.90
2022-11-09T07:36:48.198Z,18.20
2022-11-09T07:39:23.244Z,18.30
2022-11-09T07:41:57.981Z,24.10
2022-11-09T07:44:43.199Z,20.90
2022-11-09T07:47:19.221Z,20.30
2022-11-09T07:49:57.207Z,19.40
2022-11-09T07:52:32.061Z,19.50
2022-11-09T07:55:09.962Z,19.10
2022-11-09T07:57:47.842Z,20.40
2022-11-09T08:00:27.815Z,17.30
2022-11-09T08:03:03.051Z,20.00
2022-11-09T08:05:39.745Z,19.50
2022-11-09T08:08:16.909Z,19.30
2022-11-09T08:10:58.982Z,16.30
2022-11-09T08:13:34.503Z,20.80
2022-11-09T08:16:10.959Z,20.90
2022-11-09T08:18:47.634Z,17.80
2022-11-09T08:21:23.644Z,18.50
2022-11-09T08:23:59.496Z,20.10
2022-11-09T08:26:33.850Z,20.20
2022-11-09T08:29:08.829Z,21.00
2022-11-09T08:31:44.427Z,18.90
2022-11-09T08:34:22.061Z,16.60
2022-11-09T08:37:01.875Z,18.80
2022-11-09T08:39:37.529Z,19.40
2022-11-09T08:42:13.525Z,24.10
2022-11-09T08:44:50.893Z,20.30
2022-11-09T08:47:26.379Z,23.20
2022-11-09T08:50:12.085Z,19.60
2022-11-09T08:52:49.502Z,24.80
2022-11-09T08:55:25.238Z,13.30
2022-11-09T08:58:03.018Z,20.80
2022-11-09T09:00:40.742Z,17.40
2022-11-09T09:03:18.102Z,22.80
2022-11-09T09:05:53.266Z,17.80
2022-11-09T09:08:28.335Z,19.40
2022-11-09T09:11:07.267Z,21.10
2022-11-09T09:13:46.313Z,18.70
2022-11-09T09:16:22.853Z,20.60
2022-11-09T09:19:00.526Z,16.80
2022-11-09T09:21:36.278Z,20.20
2022-11-09T09:24:11.813Z,17.00
2022-11-09T09:26:49.074Z,19.20
2022-11-09T09:29:24.391Z,17.60
2022-11-09T09:32:02.254Z,19.10
2022-11-09T09:34:38.240Z,18.60
2022-11-09T09:37:15.652Z,16.10
2022-11-09T09:39:51.418Z,16.00
2022-11-09T09:42:32.223Z,16.50
2022-11-09T09:45:15.478Z,17.10
2022-11-09T09:47:55.757Z,16.30
2022-11-09T09:50:38.483Z,16.90
2022-11-09T09:53:29.983Z,17.60
2022-11-09T09:56:19.366Z,16.50
2022-11-09T09:59:02.062Z,15.40
2022-11-09T10:01:42.645Z,17.90
2022-11-09T10:04:23.831Z,15.70
2022-11-09T10:07:06.211Z,15.10
2022-11-09T10:09:57.377Z,14.80
2022-11-09T10:12:42.347Z,22.20
2022-11-09T10:15:29.385Z,21.10
2022-11-09T10:18:29.398Z,17.60
2022-11-09T10:21:23.305Z,15.90
2022-11-09T10:24:11.244Z,17.60
2022-11-09T10:26:53.398Z,18.10
2022-11-09T10:29:29.376Z,17.80
2022-11-09T10:32:12.807Z,15.60
2022-11-09T10:35:05.889Z,17.10
2022-11-09T10:37:44.295Z,18.30
2022-11-09T10:40:26.368Z,15.50
2022-11-09T10:43:22.574Z,13.60
2022-11-09T10:46:18.301Z,16.20
2022-11-09T10:49:25.614Z,16.50
2022-11-09T10:52:47.191Z,18.80
2022-11-09T10:55:41.415Z,16.30
2022-11-09T10:58:40.201Z,15.50
2022-11-09T11:01:40.829Z,17.50
2022-11-09T11:04:34.949Z,16.90
2022-11-09T11:07:30.151Z,12.60
2022-11-09T11:10:27.444Z,18.20
2022-11-09T11:13:36.744Z,20.30
2022-11-09T11:16:34.840Z,17.20
2022-11-09T11:19:38.752Z,16.70
2022-11-09T11:22:33.762Z,18.60
2022-11-09T11:25:27.916Z,16.50
2022-11-09T11:28:26.334Z,19.40
2022-11-09T11:31:23.691Z,17.40
2022-11-09T11:34:38.451Z,16.70
2022-11-09T11:37:47.576Z,16.30
2022-11-09T11:41:09.984Z,18.00
2022-11-09T11:44:11.026Z,14.90
2022-11-09T11:47:11.695Z,16.20
2022-11-09T11:50:21.436Z,13.80
2022-11-09T11:53:30.932Z,17.40
2022-11-09T11:56:33.944Z,11.40
2022-11-09T11:59:56.876Z,12.50
2022-11-09T12:03:19.566Z,12.30
2022-11-09T12:06:34.281Z,13.60
2022-11-09T12:09:44.865Z,13.90
2022-11-09T12:12:50.596Z,12.70
2022-11-09T12:15:57.790Z,11.60
2022-11-09T12:19:03.690Z,11.40
2022-11-09T12:22:05.662Z,14.00
2022-11-09T12:25:05.499Z,12.90
2022-11-09T12:28:13.611Z,12.60
2022-11-09T12:31:21.459Z,16.10
2022-11-09T12:34:24.823Z,13.00
2022-11-09T12:37:22.976Z,13.90
2022-11-09T12:40:32.620Z,13.50
2022-11-09T12:43:34.230Z,12.20
2022-11-09T12:46:33.422Z,11.40
2022-11-09T12:49:36.165Z,13.40
2022-11-09T12:52:33.761Z,12.70
2022-11-09T12:55:34.934Z,11.60
2022-11-09T12:58:30.140Z,9.90
2022-11-09T13:01:53.114Z,10.30
2022-11-09T13:04:59.358Z,12.20
2022-11-09T13:07:57.010Z,12.80
2022-11-09T13:11:09.896Z,15.60
2022-11-09T13:14:32.323Z,12.10
2022-11-09T13:18:05.624Z,13.20
2022-11-09T13:21:20.251Z,11.60
2022-11-09T13:24:56.840Z,10.20
2022-11-09T13:27:50.766Z,12.50
2022-11-09T13:30:48.586Z,12.60
2022-11-09T13:33:42.850Z,13.70
2022-11-09T13:36:36.832Z,4.00
2022-11-09T13:39:40.079Z,14.10
2022-11-09T13:42:36.127Z,13.20
2022-11-09T13:45:36.216Z,14.30
2022-11-09T13:48:36.832Z,15.00
2022-11-09T13:51:46.835Z,13.40
2022-11-09T13:54:46.560Z,14.50
2022-11-09T13:57:43.214Z,12.20
2022-11-09T14:00:36.451Z,14.80
2022-11-09T14:03:31.696Z,12.80
2022-11-09T14:06:24.788Z,12.80
2022-11-09T14:09:22.285Z,11.80
2022-11-09T14:12:34.367Z,14.20
2022-11-09T14:15:41.117Z,15.60
2022-11-09T14:18:46.099Z,16.80
2022-11-09T14:21:48.441Z,18.60
2022-11-09T14:24:44.104Z,16.30
2022-11-09T14:27:48.879Z,17.40
2022-11-09T14:30:48.357Z,16.10
2022-11-09T14:33:42.988Z,19.50
2022-11-09T14:36:43.812Z,18.50
2022-11-09T14:39:41.287Z,17.00
2022-11-09T14:42:37.195Z,16.10
2022-11-09T14:45:33.887Z,15.20
2022-11-09T14:48:28.320Z,21.00
2022-11-09T14:51:23.715Z,17.70
2022-11-09T14:54:19.333Z,19.60
2022-11-09T14:57:16.447Z,18.90
2022-11-09T15:00:24.097Z,20.10
2022-11-09T15:03:30.232Z,20.50
2022-11-09T15:06:47.786Z,28.20
2022-11-09T15:09:53.787Z,914.20
2022-11-09T15:12:55.675Z,289.30
2022-11-09T15:16:02.185Z,111.20
2022-11-09T15:19:08.411Z,900.70
2022-11-09T15:22:02.946Z,658.00
2022-11-09T15:24:58.623Z,419.50
2022-11-09T15:28:29.269Z,567.30
2022-11-09T15:31:23.405Z,236.10
2022-11-09T15:37:31.104Z,100.60
2022-11-09T15:40:25.183Z,92.80
2022-11-09T15:43:20.934Z,54.60
2022-11-09T15:46:16.556Z,35.20
2022-11-09T15:49:23.944Z,52.50
2022-11-09T15:52:18.681Z,28.90
2022-11-09T15:55:16.955Z,26.50
2022-11-09T15:58:12.368Z,29.00
2022-11-09T16:01:13.094Z,27.20
2022-11-09T16:04:09.675Z,28.70
2022-11-09T16:07:03.364Z,25.50
2022-11-09T16:10:16.625Z,27.30
2022-11-09T16:13:10.917Z,21.90
2022-11-09T16:16:09.176Z,25.40
2022-11-09T16:19:05.064Z,23.20
2022-11-09T16:22:04.627Z,23.30
2022-11-09T16:25:16.909Z,25.60
2022-11-09T16:28:11.601Z,25.70
2022-11-09T16:31:09.885Z,24.00
2022-11-09T16:34:19.983Z,20.20
2022-11-09T16:37:17.844Z,26.30
2022-11-09T16:40:15.806Z,24.10
2022-11-09T16:43:09.483Z,18.80
2022-11-09T16:46:03.065Z,22.40
2022-11-09T16:49:03.575Z,22.30
2022-11-09T16:51:57.997Z,21.00
2022-11-09T16:54:51.976Z,22.70
2022-11-09T16:57:50.903Z,23.40
2022-11-09T17:04:06.477Z,21.90
2022-11-09T17:07:03.511Z,20.30
2022-11-09T17:09:58.458Z,23.50
2022-11-09T17:12:57.679Z,21.20
2022-11-09T17:15:53.073Z,21.70
2022-11-09T17:18:47.075Z,22.60
2022-11-09T17:21:42.479Z,24.70
2022-11-09T17:24:36.542Z,23.00
2022-11-09T17:27:30.533Z,20.70
2022-11-09T17:30:25.658Z,24.00
2022-11-09T17:33:22.421Z,21.20
2022-11-09T17:36:29.929Z,26.00
2022-11-09T17:39:32.986Z,23.00
2022-11-09T17:42:27.022Z,26.10
2022-11-09T17:48:12.959Z,28.90
2022-11-09T17:54:00.135Z,40.10
2022-11-09T17:56:54.806Z,41.10
2022-11-09T18:00:00.598Z,31.70
2022-11-09T18:02:58.486Z,28.10
2022-11-09T18:05:52.863Z,33.40
2022-11-09T18:08:58.296Z,32.80
2022-11-09T18:12:05.233Z,34.70
2022-11-09T18:14:59.487Z,38.10
2022-11-09T18:17:52.802Z,37.90
2022-11-09T18:20:47.751Z,47.60
2022-11-09T18:23:41.744Z,55.70
2022-11-09T18:26:35.284Z,54.10
2022-11-09T18:29:29.573Z,71.90
2022-11-09T18:32:24.770Z,85.70
2022-11-09T18:35:20.346Z,98.00
2022-11-09T18:38:17.511Z,97.30
2022-11-09T18:41:15.051Z,69.20
2022-11-09T18:44:12.506Z,72.10
2022-11-09T18:47:06.042Z,69.60
2022-11-09T18:49:59.627Z,64.50
2022-11-09T18:52:53.933Z,60.10
2022-11-09T18:55:49.841Z,61.80
2022-11-09T18:58:44.399Z,59.30
2022-11-09T19:01:45.516Z,58.70
2022-11-09T19:04:40.825Z,53.40
2022-11-09T19:07:36.486Z,72.90
2022-11-09T19:10:31.002Z,80.00
2022-11-09T19:13:27.890Z,66.20
2022-11-09T19:16:29.382Z,58.40
2022-11-09T19:19:28.216Z,62.80
2022-11-09T19:22:25.442Z,58.10
2022-11-09T19:25:21.770Z,51.60
2022-11-09T19:28:16.033Z,53.50
2022-11-09T19:31:12.731Z,49.60
2022-11-09T19:34:08.176Z,50.30
2022-11-09T19:37:01.079Z,58.40
2022-11-09T19:39:55.802Z,53.80
2022-11-09T19:42:49.001Z,54.30
2022-11-09T19:45:45.836Z,52.20
2022-11-09T19:48:45.714Z,58.60
2022-11-09T19:51:39.614Z,56.20
2022-11-09T19:54:33.268Z,53.90
2022-11-09T19:57:52.652Z,56.80
2022-11-09T20:00:49.146Z,58.60
2022-11-09T20:03:43.496Z,58.40
2022-11-09T20:06:36.166Z,58.80
2022-11-09T20:09:32.194Z,54.70
2022-11-09T20:12:47.039Z,57.30
2022-11-09T20:15:42.350Z,51.50
2022-11-09T20:18:36.552Z,43.50
2022-11-09T20:21:30.069Z,56.10
2022-11-09T20:24:22.895Z,36.10
2022-11-09T20:27:17.185Z,59.40
2022-11-09T20:30:14.091Z,57.10
2022-11-09T20:33:15.518Z,44.00
2022-11-09T20:36:09.318Z,61.80
2022-11-09T20:39:03.131Z,58.90
2022-11-09T20:41:58.826Z,56.50
2022-11-09T20:45:05.874Z,56.20
2022-11-09T20:48:14.762Z,60.40
2022-11-09T20:51:19.173Z,55.70
2022-11-09T20:54:13.624Z,54.40
2022-11-09T20:57:07.976Z,56.50
2022-11-09T21:00:00.879Z,60.80
2022-11-09T21:02:54.866Z,68.60
2022-11-09T21:06:01.241Z,95.20
2022-11-09T21:08:56.660Z,108.60
2022-11-09T21:12:06.155Z,97.90
2022-11-09T21:14:59.924Z,87.70
2022-11-09T21:17:54.852Z,82.00
2022-11-09T21:20:48.325Z,85.60
2022-11-09T21:24:01.111Z,79.80
2022-11-09T21:27:11.912Z,103.10
2022-11-09T21:30:06.048Z,101.00
2022-11-09T21:32:59.857Z,91.20
2022-11-09T21:35:57.194Z,89.30
2022-11-09T21:38:56.521Z,70.10
2022-11-09T21:41:52.042Z,80.80
2022-11-09T21:44:48.588Z,70.30
2022-11-09T21:50:33.502Z,83.40
2022-11-09T21:53:33.747Z,106.90
2022-11-09T21:56:26.715Z,110.30
2022-11-09T21:59:23.981Z,89.70
2022-11-09T22:02:16.228Z,86.10
2022-11-09T22:05:10.506Z,97.90
2022-11-09T22:08:04.939Z,81.90
2022-11-09T22:11:10.269Z,90.30
2022-11-09T22:14:22.018Z,78.80
2022-11-09T22:17:17.125Z,84.90
2022-11-09T22:20:31.911Z,70.60
2022-11-09T22:23:25.375Z,89.20
2022-11-09T22:26:18.887Z,85.70
2022-11-09T22:29:39.709Z,83.80
2022-11-09T22:32:33.051Z,81.30
2022-11-09T22:35:27.566Z,87.90
2022-11-09T22:38:20.675Z,87.40
2022-11-09T22:41:17.970Z,92.50
2022-11-09T22:44:13.659Z,102.60
2022-11-09T22:47:10.944Z,101.20
2022-11-09T22:50:04.555Z,92.90
2022-11-09T22:53:03.462Z,89.00
2022-11-09T22:55:59.812Z,81.60
2022-11-09T22:58:55.766Z,73.20
2022-11-09T23:01:50.441Z,79.80
2022-11-09T23:04:45.553Z,85.80
2022-11-09T23:07:39.968Z,80.60
2022-11-09T23:10:32.410Z,81.20
2022-11-09T23:13:26.075Z,78.10
2022-11-09T23:19:12.092Z,70.40
2022-11-09T23:22:04.898Z,84.10
2022-11-09T23:25:15.225Z,81.20
2022-11-09T23:28:12.235Z,76.40
2022-11-09T23:31:14.525Z,73.20
2022-11-09T23:34:10.557Z,76.10
2022-11-09T23:37:04.220Z,75.40
2022-11-09T23:39:59.371Z,80.60
2022-11-09T23:43:06.155Z,77.00
2022-11-09T23:46:02.571Z,81.20
2022-11-09T23:48:56.673Z,68.30
2022-11-09T23:51:50.439Z,69.70
2022-11-09T23:54:43.013Z,71.60
2022-11-09T23:57:36.395Z,72.60
